Time;durP1;ratioP1;P1;durP2;ratioP2;P2;SDS_P1;SDS_P2;PMS_P1;PMS_P2;Temp;Humidity;BMP_temperature;BMP_pressure;BME280_temperature;BME280_humidity;BME280_pressure;Samples;Min_cycle;Max_cycle;Signal;HPM_P1;HPM_P2
2020/12/11 00:00:14;;;;;;;94.47;45.90;;;9.00;99.90;;;;;;5063368;28;20383;-80
2020/12/11 00:02:40;;;;;;;92.18;53.90;;;9.00;99.90;;;;;;5059550;28;20362;-79
2020/12/11 00:05:06;;;;;;;91.18;58.53;;;9.00;99.90;;;;;;5062784;28;20365;-79
2020/12/11 00:07:39;;;;;;;91.47;62.15;;;9.00;99.90;;;;;;5060212;28;20701;-79
2020/12/11 00:10:06;;;;;;;96.87;61.20;;;9.00;99.90;;;;;;5059691;28;20481;-79
2020/12/11 00:12:32;;;;;;;93.75;61.13;;;8.90;99.90;;;;;;5061679;28;20370;-79
2020/12/11 00:15:02;;;;;;;79.50;54.38;;;9.00;99.90;;;;;;5060106;28;20409;-79
2020/12/11 00:17:28;;;;;;;66.38;47.75;;;9.00;99.90;;;;;;5058342;28;20719;-79
2020/12/11 00:19:55;;;;;;;57.20;40.85;;;8.90;99.90;;;;;;5060524;28;20358;-79
2020/12/11 00:22:21;;;;;;;48.95;38.60;;;8.90;99.90;;;;;;5060537;28;20360;-79
2020/12/11 00:24:48;;;;;;;52.70;38.25;;;8.90;99.90;;;;;;5061042;28;21157;-79
2020/12/11 00:27:14;;;;;;;81.83;49.33;;;8.90;99.90;;;;;;5062529;28;20523;-79
2020/12/11 00:29:40;;;;;;;78.45;48.95;;;8.90;99.90;;;;;;5071369;28;20461;-78
2020/12/11 00:32:06;;;;;;;61.40;41.80;;;8.90;99.90;;;;;;5063980;28;20366;-79
2020/12/11 00:34:32;;;;;;;53.25;40.22;;;8.90;99.90;;;;;;5057867;28;20375;-79
2020/12/11 00:36:59;;;;;;;52.97;38.67;;;8.90;99.90;;;;;;5053046;28;20388;-79
2020/12/11 00:39:25;;;;;;;66.90;44.60;;;8.90;99.90;;;;;;5050473;28;20731;-80
2020/12/11 00:41:51;;;;;;;72.65;45.22;;;8.80;99.90;;;;;;5053812;28;20373;-79
2020/12/11 00:44:17;;;;;;;63.40;44.05;;;8.90;99.90;;;;;;5057324;28;20461;-79
2020/12/11 00:46:43;;;;;;;55.15;41.15;;;8.80;99.90;;;;;;5054827;28;20838;-78
2020/12/11 00:49:09;;;;;;;51.65;39.00;;;8.80;99.90;;;;;;5051873;28;20367;-79
2020/12/11 00:51:35;;;;;;;47.80;36.43;;;8.80;99.90;;;;;;5056676;28;20521;-79
2020/12/11 00:54:01;;;;;;;54.77;39.30;;;8.80;99.90;;;;;;5071376;28;20775;-79
2020/12/11 00:56:27;;;;;;;55.67;40.22;;;8.80;99.90;;;;;;5071897;28;20386;-79
2020/12/11 00:58:52;;;;;;;66.43;44.42;;;8.80;99.90;;;;;;5071069;28;20380;-79
2020/12/11 01:01:18;;;;;;;60.70;42.90;;;8.70;99.90;;;;;;5072006;28;20436;-79
2020/12/11 01:03:44;;;;;;;56.97;41.10;;;8.60;99.90;;;;;;5071136;28;20362;-79
2020/12/11 01:06:10;;;;;;;58.60;42.97;;;8.70;99.90;;;;;;5074247;28;20444;-79
2020/12/11 01:08:36;;;;;;;78.38;54.22;;;8.70;99.90;;;;;;5075673;28;20366;-79
2020/12/11 01:11:02;;;;;;;88.97;63.03;;;8.60;99.90;;;;;;5090450;28;20396;-79
2020/12/11 01:13:28;;;;;;;78.63;55.35;;;8.60;99.90;;;;;;5095878;28;20376;-79
2020/12/11 01:15:54;;;;;;;67.43;48.70;;;8.50;99.90;;;;;;5095812;28;20437;-79
2020/12/11 01:18:20;;;;;;;53.95;41.47;;;8.50;99.90;;;;;;5077454;28;20436;-78
2020/12/11 01:20:46;;;;;;;47.25;36.55;;;8.40;99.90;;;;;;5095381;28;20372;-79
2020/12/11 01:23:12;;;;;;;51.07;37.97;;;8.50;99.90;;;;;;5095946;28;20365;-79
2020/12/11 01:25:37;;;;;;;48.93;35.57;;;8.40;99.90;;;;;;5077326;28;20365;-79
2020/12/11 01:28:04;;;;;;;50.00;36.47;;;8.50;99.90;;;;;;5095389;28;20361;-79
2020/12/11 01:30:33;;;;;;;207.27;46.40;;;8.50;99.90;;;;;;5076983;28;20384;-78
2020/12/11 01:32:59;;;;;;;58.45;37.17;;;8.50;99.90;;;;;;5077192;28;20732;-79
2020/12/11 01:35:24;;;;;;;47.95;32.70;;;8.50;99.90;;;;;;5095288;28;20445;-79
2020/12/11 01:37:50;;;;;;;47.50;36.50;;;8.60;99.90;;;;;;5076872;28;20360;-78
2020/12/11 01:40:16;;;;;;;73.20;44.33;;;8.50;99.90;;;;;;5094430;28;20368;-78
2020/12/11 01:42:42;;;;;;;63.40;42.80;;;8.60;99.90;;;;;;5076460;28;20422;-78
2020/12/11 01:45:09;;;;;;;57.65;39.97;;;8.60;99.90;;;;;;5094423;28;20844;-78
2020/12/11 01:47:39;;;;;;;51.60;37.15;;;8.60;99.90;;;;;;5094255;28;20369;-78
2020/12/11 01:50:18;;;;;;;57.08;36.92;;;8.60;99.90;;;;;;5094668;28;20356;-78
2020/12/11 01:52:50;;;;;;;54.15;37.63;;;8.40;99.90;;;;;;5077026;28;20421;-79
2020/12/11 01:55:16;;;;;;;47.00;35.95;;;8.40;99.90;;;;;;5094831;28;20368;-79
2020/12/11 01:58:00;;;;;;;53.85;40.35;;;8.50;99.90;;;;;;5094824;28;20839;-79
2020/12/11 02:00:26;;;;;;;76.97;47.78;;;8.50;99.90;;;;;;5076706;28;20376;-79
2020/12/11 02:03:04;;;;;;;89.53;53.58;;;8.50;99.90;;;;;;5095134;28;20763;-79
2020/12/11 02:05:30;;;;;;;76.47;47.17;;;8.50;99.90;;;;;;5094700;28;20424;-79
2020/12/11 02:07:57;;;;;;;66.35;42.80;;;8.50;99.90;;;;;;5095058;28;20360;-79
2020/12/11 02:10:23;;;;;;;62.72;43.17;;;8.40;99.90;;;;;;5094604;28;20396;-79
2020/12/11 02:12:49;;;;;;;58.33;41.35;;;8.40;99.90;;;;;;5076872;28;20368;-79
2020/12/11 02:15:14;;;;;;;61.20;43.97;;;8.40;99.90;;;;;;5094552;28;20383;-79
2020/12/11 02:17:40;;;;;;;63.35;41.95;;;8.40;99.90;;;;;;5094494;28;20417;-79
2020/12/11 02:20:06;;;;;;;63.20;43.40;;;8.40;99.90;;;;;;5095035;28;20360;-79
2020/12/11 02:22:32;;;;;;;61.60;44.25;;;8.30;99.90;;;;;;5094415;28;21250;-80
2020/12/11 02:24:58;;;;;;;59.27;41.87;;;8.10;99.90;;;;;;5094811;28;20364;-79
2020/12/11 02:27:24;;;;;;;51.80;38.40;;;8.10;99.90;;;;;;5094443;28;20460;-79
2020/12/11 02:29:50;;;;;;;53.33;38.60;;;8.20;99.90;;;;;;5094908;28;20907;-79
2020/12/11 02:32:16;;;;;;;49.70;38.03;;;8.20;99.90;;;;;;5094438;28;20376;-79
2020/12/11 02:34:44;;;;;;;54.57;41.13;;;8.20;99.90;;;;;;5076056;28;20464;-79
2020/12/11 02:37:13;;;;;;;52.50;38.47;;;8.20;99.90;;;;;;5076573;28;20380;-79
2020/12/11 02:39:40;;;;;;;53.53;40.25;;;8.30;99.90;;;;;;5094875;28;20824;-79
2020/12/11 02:42:07;;;;;;;54.83;40.07;;;8.30;99.90;;;;;;5094408;28;20372;-79
2020/12/11 02:44:33;;;;;;;63.38;42.10;;;8.20;99.90;;;;;;5094421;28;20393;-79
2020/12/11 02:46:59;;;;;;;59.55;40.50;;;8.20;99.90;;;;;;5075852;28;20392;-79
2020/12/11 02:49:25;;;;;;;63.60;43.43;;;8.20;99.90;;;;;;5075825;28;20379;-79
2020/12/11 02:51:52;;;;;;;62.92;39.42;;;8.20;99.90;;;;;;5094135;28;21076;-79
2020/12/11 02:54:17;;;;;;;69.10;41.45;;;8.30;99.90;;;;;;5094125;28;20364;-79
2020/12/11 02:56:43;;;;;;;54.20;37.47;;;8.20;99.90;;;;;;5093906;28;20380;-79
2020/12/11 02:59:09;;;;;;;52.13;38.90;;;8.20;99.90;;;;;;5093828;28;20369;-79
2020/12/11 03:01:35;;;;;;;57.50;37.90;;;8.20;99.90;;;;;;5075561;28;20375;-79
2020/12/11 03:04:01;;;;;;;53.53;38.70;;;8.20;99.90;;;;;;5075542;28;20388;-79
2020/12/11 03:06:31;;;;;;;53.80;41.33;;;8.20;99.90;;;;;;5093546;28;20376;-79
2020/12/11 03:08:58;;;;;;;69.50;41.33;;;8.10;99.90;;;;;;5093412;28;20368;-79
2020/12/11 03:11:24;;;;;;;60.97;41.25;;;8.10;99.90;;;;;;5093664;28;20728;-79
2020/12/11 03:13:50;;;;;;;53.03;38.80;;;8.10;99.90;;;;;;5093385;28;20406;-79
2020/12/11 03:16:16;;;;;;;55.00;39.33;;;8.00;99.90;;;;;;5093279;28;20388;-78
2020/12/11 03:18:43;;;;;;;57.90;40.10;;;8.00;99.90;;;;;;5092899;28;20368;-78
2020/12/11 03:21:09;;;;;;;66.78;44.67;;;8.00;99.90;;;;;;5093430;28;20439;-79
2020/12/11 03:23:36;;;;;;;66.28;45.00;;;7.90;99.90;;;;;;5093149;28;21242;-78
2020/12/11 03:26:05;;;;;;;69.53;45.20;;;7.90;99.90;;;;;;5092864;28;20372;-79
2020/12/11 03:28:31;;;;;;;67.40;43.22;;;8.00;99.90;;;;;;5074423;28;20369;-79
2020/12/11 03:30:58;;;;;;;60.47;41.78;;;8.00;99.90;;;;;;5092909;28;20372;-78
2020/12/11 03:33:24;;;;;;;51.30;39.10;;;8.00;99.90;;;;;;5075243;28;20375;-79
2020/12/11 03:35:50;;;;;;;45.67;37.80;;;8.00;99.90;;;;;;5074988;28;20448;-79
2020/12/11 03:38:15;;;;;;;44.00;35.90;;;8.00;99.90;;;;;;5092947;28;20808;-79
2020/12/11 03:40:41;;;;;;;51.72;39.70;;;8.10;99.90;;;;;;5093307;28;20719;-79
2020/12/11 03:43:07;;;;;;;56.78;38.53;;;8.10;99.90;;;;;;5093017;28;20447;-79
2020/12/11 03:45:33;;;;;;;46.42;37.05;;;8.10;99.90;;;;;;5093466;28;20372;-78
2020/12/11 03:47:59;;;;;;;50.05;39.13;;;8.00;99.90;;;;;;5092694;28;20396;-79
2020/12/11 03:50:24;;;;;;;50.45;38.67;;;8.10;99.90;;;;;;5074335;28;20368;-79
2020/12/11 03:52:50;;;;;;;105.03;44.60;;;8.20;99.90;;;;;;5092612;28;20364;-78
2020/12/11 03:55:16;;;;;;;49.77;38.00;;;7.80;99.90;;;;;;5092273;28;20364;-78
2020/12/11 03:57:42;;;;;;;51.70;38.03;;;8.00;99.90;;;;;;5092545;28;20375;-78
2020/12/11 04:00:08;;;;;;;51.17;40.03;;;8.00;99.90;;;;;;5074246;28;20699;-79
2020/12/11 04:02:34;;;;;;;56.53;39.13;;;8.00;99.90;;;;;;5092289;28;20455;-78
2020/12/11 04:05:02;;;;;;;48.08;39.03;;;8.10;99.90;;;;;;5091910;28;20455;-78
2020/12/11 04:07:28;;;;;;;45.15;37.35;;;8.10;99.90;;;;;;5073841;28;20368;-78
2020/12/11 04:09:54;;;;;;;47.13;38.73;;;8.00;99.90;;;;;;5091858;28;20398;-78
2020/12/11 04:12:19;;;;;;;52.63;39.87;;;8.00;99.90;;;;;;5092038;28;20372;-78
2020/12/11 04:14:45;;;;;;;48.07;37.10;;;8.00;99.90;;;;;;5092537;28;20428;-79
2020/12/11 04:17:11;;;;;;;51.95;40.83;;;8.00;99.90;;;;;;5092067;28;20391;-79
2020/12/11 04:19:37;;;;;;;129.43;48.47;;;8.00;99.90;;;;;;5092621;28;20439;-78
2020/12/11 04:22:03;;;;;;;59.05;41.53;;;7.90;99.90;;;;;;5092451;28;20360;-79
2020/12/11 04:24:28;;;;;;;52.95;39.47;;;7.90;99.90;;;;;;5092234;28;20364;-79
2020/12/11 04:26:54;;;;;;;48.95;37.08;;;7.90;99.90;;;;;;5074383;28;20387;-79
2020/12/11 04:29:20;;;;;;;49.85;39.08;;;7.90;99.90;;;;;;5092226;28;20396;-78
2020/12/11 04:32:00;;;;;;;46.53;37.08;;;7.90;99.90;;;;;;5074176;28;20810;-79
2020/12/11 04:34:26;;;;;;;51.45;38.97;;;7.80;99.90;;;;;;5092150;28;20923;-79
2020/12/11 04:36:57;;;;;;;51.73;38.23;;;7.80;99.90;;;;;;5092411;28;20395;-79
2020/12/11 04:39:24;;;;;;;103.78;48.03;;;7.70;99.90;;;;;;5094735;28;20455;-79
2020/12/11 04:41:51;;;;;;;56.35;38.30;;;7.60;99.90;;;;;;5096438;28;20360;-79
2020/12/11 04:44:18;;;;;;;57.20;38.20;;;7.60;99.90;;;;;;5096242;28;20447;-79
2020/12/11 04:46:44;;;;;;;52.55;38.10;;;7.60;99.90;;;;;;5096109;28;20788;-79
2020/12/11 04:49:10;;;;;;;47.75;36.35;;;7.50;99.90;;;;;;5078346;28;20466;-78
2020/12/11 04:51:47;;;;;;;46.58;36.05;;;7.50;99.90;;;;;;5096321;28;20827;-79
2020/12/11 04:54:18;;;;;;;52.42;38.25;;;7.60;99.90;;;;;;5096625;28;20368;-79
2020/12/11 04:56:50;;;;;;;72.90;42.40;;;7.70;99.90;;;;;;5096175;28;20889;-79
2020/12/11 04:59:16;;;;;;;114.13;64.57;;;7.80;99.90;;;;;;5096352;28;20443;-79
2020/12/11 05:01:43;;;;;;;97.32;58.80;;;7.80;99.90;;;;;;5078298;28;20380;-79
2020/12/11 05:04:09;;;;;;;90.03;47.20;;;7.80;99.90;;;;;;5095945;28;20379;-79
2020/12/11 05:06:35;;;;;;;79.05;48.13;;;7.60;99.90;;;;;;5077687;28;20368;-79
2020/12/11 05:09:19;;;;;;;70.13;42.90;;;7.70;99.90;;;;;;5077738;28;20360;-79
2020/12/11 05:11:47;;;;;;;62.90;42.97;;;7.70;99.90;;;;;;5054611;28;20457;-80
2020/12/11 05:14:27;;;;;;;53.58;37.97;;;7.40;99.90;;;;;;5054207;28;20376;-80
2020/12/11 05:17:02;;;;;;;68.50;41.58;;;7.60;99.90;;;;;;5055349;28;20384;-80
2020/12/11 05:19:32;;;;;;;60.70;41.30;;;7.60;99.90;;;;;;5054377;28;20379;-79
2020/12/11 05:22:10;;;;;;;65.70;44.67;;;7.60;99.90;;;;;;5056125;28;20376;-80
2020/12/11 05:24:44;;;;;;;69.47;42.87;;;7.60;99.90;;;;;;5055313;28;20846;-79
2020/12/11 05:27:38;;;;;;;67.60;47.58;;;7.60;99.90;;;;;;5055110;28;20777;-79
2020/12/11 05:30:13;;;;;;;77.75;45.92;;;7.60;99.90;;;;;;5042120;28;20466;-79
2020/12/11 05:32:44;;;;;;;71.75;47.85;;;7.60;99.90;;;;;;5055084;28;20379;-79
2020/12/11 05:35:24;;;;;;;87.63;54.33;;;7.50;99.90;;;;;;5055472;28;20410;-79
2020/12/11 05:37:53;;;;;;;68.88;46.40;;;7.40;99.90;;;;;;5055240;28;20375;-79
2020/12/11 05:40:26;;;;;;;73.65;48.17;;;7.50;99.90;;;;;;5055373;28;20391;-79
2020/12/11 05:43:17;;;;;;;65.93;45.80;;;7.50;99.90;;;;;;5054865;28;20360;-79
2020/12/11 05:45:53;;;;;;;70.72;44.33;;;7.50;99.90;;;;;;5055016;28;20378;-79
2020/12/11 05:48:21;;;;;;;61.65;42.25;;;7.40;99.90;;;;;;5054902;28;20386;-79
2020/12/11 05:50:47;;;;;;;61.70;43.78;;;7.40;99.90;;;;;;5054336;28;20365;-79
2020/12/11 05:53:13;;;;;;;66.38;46.67;;;7.40;99.90;;;;;;5053587;28;20402;-79
2020/12/11 05:55:39;;;;;;;65.68;47.72;;;7.40;99.90;;;;;;5055052;28;20396;-79
2020/12/11 05:58:08;;;;;;;65.20;46.38;;;7.40;99.90;;;;;;5054998;28;20406;-79
2020/12/11 06:00:34;;;;;;;80.13;50.80;;;7.40;99.90;;;;;;5054850;28;20394;-79
2020/12/11 06:03:01;;;;;;;75.43;52.33;;;7.50;99.90;;;;;;5054903;28;20379;-79
2020/12/11 06:05:27;;;;;;;66.15;48.85;;;7.40;99.90;;;;;;5054874;28;20435;-79
2020/12/11 06:07:53;;;;;;;72.85;49.45;;;7.50;99.90;;;;;;5054759;28;20359;-79
2020/12/11 06:10:23;;;;;;;71.85;50.22;;;7.50;99.90;;;;;;5071985;28;20411;-79
2020/12/11 06:12:50;;;;;;;100.30;52.75;;;7.40;99.90;;;;;;5095202;28;20376;-79
2020/12/11 06:15:23;;;;;;;109.20;54.85;;;7.50;99.90;;;;;;5094393;28;20369;-78
2020/12/11 06:17:55;;;;;;;77.77;51.20;;;7.50;99.90;;;;;;5076217;28;20356;-79
2020/12/11 06:20:21;;;;;;;80.20;53.10;;;7.50;99.90;;;;;;5076266;28;20502;-79
2020/12/11 06:22:46;;;;;;;76.90;51.13;;;7.50;99.90;;;;;;5076603;28;20365;-79
2020/12/11 06:25:26;;;;;;;76.40;49.60;;;7.60;99.90;;;;;;5094767;28;20754;-79
2020/12/11 06:27:53;;;;;;;66.10;45.33;;;7.50;99.90;;;;;;5076917;28;20451;-79
2020/12/11 06:30:30;;;;;;;74.85;50.72;;;7.50;99.90;;;;;;5094043;28;20387;-79
2020/12/11 06:32:57;;;;;;;170.38;55.25;;;7.50;99.90;;;;;;5094305;28;20375;-78
2020/12/11 06:35:24;;;;;;;74.67;48.50;;;7.40;99.90;;;;;;5075843;28;20498;-79
2020/12/11 06:37:50;;;;;;;68.63;46.45;;;7.40;99.90;;;;;;5076216;28;20451;-79
2020/12/11 06:40:16;;;;;;;64.15;43.85;;;7.40;99.90;;;;;;5075875;28;20907;-79
2020/12/11 06:42:43;;;;;;;66.18;45.92;;;7.40;99.90;;;;;;5094169;28;20348;-79
2020/12/11 06:45:26;;;;;;;80.88;52.65;;;7.50;99.90;;;;;;5094771;28;20364;-79
2020/12/11 06:47:53;;;;;;;82.38;54.72;;;7.40;99.90;;;;;;5075986;28;20373;-79
2020/12/11 06:50:21;;;;;;;90.43;55.47;;;7.40;99.90;;;;;;5094088;28;20360;-79
2020/12/11 06:52:47;;;;;;;78.22;49.33;;;7.40;99.90;;;;;;5075684;28;20380;-79
2020/12/11 06:55:13;;;;;;;204.23;60.95;;;7.40;99.90;;;;;;5075971;28;20855;-79
2020/12/11 06:57:41;;;;;;;96.70;50.83;;;7.30;99.90;;;;;;5093843;28;20402;-79
2020/12/11 07:00:30;;;;;;;88.43;53.58;;;7.30;99.90;;;;;;5093931;28;20395;-79
2020/12/11 07:03:22;;;;;;;88.28;56.28;;;7.30;99.90;;;;;;5074793;28;20695;-79
2020/12/11 07:06:08;;;;;;;92.38;63.15;;;7.30;99.90;;;;;;5075783;28;20371;-79
2020/12/11 07:08:34;;;;;;;85.68;58.83;;;7.40;99.90;;;;;;5093610;28;20368;-79
2020/12/11 07:11:05;;;;;;;75.22;52.83;;;7.30;99.90;;;;;;5093471;28;20514;-79
2020/12/11 07:13:31;;;;;;;74.35;51.80;;;7.20;99.90;;;;;;5075726;28;20851;-79
2020/12/11 07:15:59;;;;;;;74.07;51.17;;;7.30;99.90;;;;;;5093533;28;20376;-79
2020/12/11 07:18:25;;;;;;;77.50;51.85;;;7.40;99.90;;;;;;5093253;28;20356;-79
2020/12/11 07:20:57;;;;;;;75.43;52.67;;;7.30;99.90;;;;;;5093541;28;20365;-79
2020/12/11 07:23:24;;;;;;;78.20;54.55;;;7.40;99.90;;;;;;5093252;28;20367;-79
2020/12/11 07:25:52;;;;;;;76.13;54.20;;;7.40;99.90;;;;;;5093504;28;20356;-79
2020/12/11 07:28:18;;;;;;;70.50;49.58;;;7.40;99.90;;;;;;5075001;28;20376;-79
2020/12/11 07:30:47;;;;;;;69.80;45.67;;;7.40;99.90;;;;;;5093044;28;20377;-79
2020/12/11 07:33:13;;;;;;;67.30;46.20;;;7.40;99.90;;;;;;5074861;28;20372;-79
2020/12/11 07:35:48;;;;;;;67.80;44.85;;;7.20;99.90;;;;;;5074885;28;20817;-79
2020/12/11 07:38:16;;;;;;;69.78;46.75;;;7.30;99.90;;;;;;5092830;28;20371;-78
2020/12/11 07:40:42;;;;;;;67.38;43.35;;;7.30;99.90;;;;;;5074173;28;20368;-78
2020/12/11 07:43:11;;;;;;;68.15;46.20;;;7.40;99.90;;;;;;5092133;28;20768;-78
2020/12/11 07:45:38;;;;;;;73.43;48.45;;;7.40;99.90;;;;;;5074574;28;20365;-79
2020/12/11 07:48:04;;;;;;;68.07;45.08;;;7.40;99.90;;;;;;5092935;28;20360;-78
2020/12/11 07:50:31;;;;;;;68.37;45.50;;;7.30;99.90;;;;;;5092663;28;20765;-78
2020/12/11 07:52:58;;;;;;;63.15;42.55;;;7.30;99.90;;;;;;5074826;28;20514;-79
2020/12/11 07:55:30;;;;;;;76.50;48.72;;;7.20;99.90;;;;;;5092703;28;20369;-79
2020/12/11 07:57:57;;;;;;;74.47;49.80;;;7.00;99.90;;;;;;5074624;28;20365;-79
2020/12/11 08:00:24;;;;;;;83.13;53.13;;;7.10;99.90;;;;;;5092965;28;20461;-81
2020/12/11 08:03:04;;;;;;;94.67;57.40;;;7.20;99.90;;;;;;5074891;28;20392;-80
2020/12/11 08:05:30;;;;;;;92.43;56.75;;;7.10;99.90;;;;;;5092349;28;20395;-79
2020/12/11 08:07:56;;;;;;;80.68;51.67;;;7.10;99.90;;;;;;5089738;28;20388;-79
2020/12/11 08:10:24;;;;;;;86.72;55.60;;;7.00;99.90;;;;;;5092585;28;20395;-80
2020/12/11 08:12:51;;;;;;;102.80;61.75;;;7.10;99.90;;;;;;5092331;28;20795;-80
2020/12/11 08:15:34;;;;;;;101.15;62.63;;;7.10;99.90;;;;;;5074369;28;20383;-80
2020/12/11 08:18:06;;;;;;;115.55;66.68;;;7.10;99.90;;;;;;5074447;28;20854;-80
2020/12/11 08:20:53;;;;;;;98.82;60.13;;;7.10;99.90;;;;;;5092393;28;20857;-80
2020/12/11 08:23:30;;;;;;;87.22;53.80;;;7.30;99.90;;;;;;5092284;28;20458;-80
2020/12/11 08:26:12;;;;;;;83.30;52.40;;;7.10;99.90;;;;;;5074141;28;20415;-81
2020/12/11 08:28:39;;;;;;;90.43;53.28;;;7.10;99.90;;;;;;5092542;28;20372;-82
2020/12/11 08:31:14;;;;;;;120.70;52.63;;;7.20;99.90;;;;;;5074233;28;20715;-83
2020/12/11 08:33:40;;;;;;;93.65;54.88;;;7.30;99.90;;;;;;5074176;28;20364;-81
2020/12/11 08:36:16;;;;;;;107.13;64.57;;;7.10;99.90;;;;;;5074100;28;20542;-81
2020/12/11 08:38:42;;;;;;;106.22;68.30;;;6.80;99.90;;;;;;5092357;28;20373;-82
2020/12/11 08:41:17;;;;;;;101.28;60.90;;;6.70;99.90;;;;;;5074049;28;20376;-81
2020/12/11 08:43:46;;;;;;;111.10;54.63;;;6.50;99.90;;;;;;5090583;28;20765;-80
2020/12/11 08:46:39;;;;;;;120.40;66.68;;;6.80;99.90;;;;;;5072850;28;20368;-81
2020/12/11 08:49:23;;;;;;;178.57;122.72;;;7.20;99.90;;;;;;5073251;28;20372;-80
2020/12/11 08:51:49;;;;;;;191.50;121.03;;;7.10;99.90;;;;;;5089360;28;20379;-81
2020/12/11 08:54:25;;;;;;;133.93;84.87;;;7.00;99.90;;;;;;5091662;28;20368;-81
2020/12/11 08:56:51;;;;;;;122.70;75.57;;;6.70;99.90;;;;;;5071028;28;20864;-81
2020/12/11 08:59:17;;;;;;;131.57;80.28;;;6.60;99.90;;;;;;5072615;28;20487;-79
2020/12/11 09:01:42;;;;;;;209.98;140.80;;;6.50;99.90;;;;;;5090908;28;20400;-80
2020/12/11 09:04:09;;;;;;;1049.53;405.35;;;6.40;99.90;;;;;;5072783;28;20716;-80
2020/12/11 09:06:34;;;;;;;1039.15;668.25;;;6.40;99.90;;;;;;5072839;28;20384;-81
2020/12/11 09:09:01;;;;;;;704.43;542.00;;;7.20;99.90;;;;;;5091816;28;20369;-81
2020/12/11 09:11:27;;;;;;;134.68;87.88;;;6.90;99.90;;;;;;5091680;28;20874;-81
2020/12/11 09:13:53;;;;;;;97.17;60.40;;;6.70;99.90;;;;;;5091951;28;20478;-81
2020/12/11 09:16:19;;;;;;;94.10;58.57;;;6.60;99.90;;;;;;5091626;28;20497;-81
2020/12/11 09:18:45;;;;;;;121.70;75.90;;;6.50;99.90;;;;;;5091228;28;20369;-81
2020/12/11 09:21:11;;;;;;;133.35;93.97;;;6.40;99.90;;;;;;5091814;28;20451;-82
2020/12/11 09:23:37;;;;;;;124.10;79.53;;;6.50;99.90;;;;;;5091411;28;20443;-82
2020/12/11 09:26:02;;;;;;;145.75;86.43;;;6.40;99.90;;;;;;5075187;28;20380;-83
2020/12/11 09:28:28;;;;;;;165.82;89.05;;;6.50;99.90;;;;;;5095309;28;20757;-82
2020/12/11 09:30:54;;;;;;;149.50;65.80;;;6.50;99.90;;;;;;5077197;28;20380;-81
2020/12/11 09:33:23;;;;;;;150.55;84.88;;;7.20;99.90;;;;;;5095175;28;20373;-81
2020/12/11 09:35:49;;;;;;;117.75;65.55;;;6.90;99.90;;;;;;5095279;28;20384;-83
2020/12/11 09:38:15;;;;;;;119.00;67.25;;;6.80;99.90;;;;;;5095134;28;20365;-81
2020/12/11 09:40:53;;;;;;;99.83;57.63;;;6.80;99.90;;;;;;5077058;28;20456;-80
2020/12/11 09:56:11;;;;;;;114.57;68.05;;;6.50;99.90;;;;;;5093057;28;20403;-80
2020/12/11 09:58:40;;;;;;;147.80;89.65;;;6.50;99.90;;;;;;5094311;28;20824;-79
2020/12/11 10:01:07;;;;;;;115.00;68.53;;;6.50;99.90;;;;;;5094054;28;20389;-79
2020/12/11 10:03:37;;;;;;;117.63;61.35;;;6.50;99.90;;;;;;5075911;28;20376;-79
2020/12/11 10:06:08;;;;;;;101.57;60.88;;;6.50;99.90;;;;;;5093773;28;20795;-80
2020/12/11 10:08:34;;;;;;;138.73;81.82;;;6.50;99.90;;;;;;5093880;28;20719;-80
2020/12/11 10:11:00;;;;;;;138.77;80.72;;;6.50;99.90;;;;;;5093741;28;20388;-79
2020/12/11 10:13:27;;;;;;;108.65;64.72;;;6.60;99.90;;;;;;5094194;28;20369;-80
2020/12/11 10:15:53;;;;;;;112.00;72.50;;;6.60;99.90;;;;;;5093730;28;20546;-81
2020/12/11 10:18:18;;;;;;;94.30;57.57;;;6.60;99.90;;;;;;5093963;28;20403;-81
2020/12/11 10:20:44;;;;;;;89.27;52.10;;;6.70;99.90;;;;;;5094231;28;20832;-81
2020/12/11 10:23:10;;;;;;;78.47;46.77;;;7.00;99.90;;;;;;5094632;28;20368;-81
2020/12/11 10:25:36;;;;;;;94.30;53.60;;;6.90;99.90;;;;;;5076227;28;20450;-81
2020/12/11 10:28:02;;;;;;;126.63;75.25;;;6.80;99.90;;;;;;5094159;28;20360;-80
2020/12/11 10:30:28;;;;;;;107.97;62.70;;;6.80;99.90;;;;;;5076100;28;20373;-82
2020/12/11 10:32:55;;;;;;;99.27;61.07;;;6.80;99.90;;;;;;5073432;28;20383;-80
2020/12/11 10:35:21;;;;;;;186.10;99.30;;;7.00;99.90;;;;;;5093917;28;20368;-80
2020/12/11 10:37:47;;;;;;;337.80;210.25;;;6.90;99.90;;;;;;5093661;28;20711;-80
2020/12/11 10:40:13;;;;;;;197.02;114.78;;;6.90;99.90;;;;;;5075828;28;20373;-80
2020/12/11 10:42:39;;;;;;;182.13;109.22;;;6.80;99.90;;;;;;5075730;28;20792;-82
2020/12/11 10:45:05;;;;;;;171.87;104.60;;;6.80;99.90;;;;;;5074949;28;20429;-80
2020/12/11 10:47:31;;;;;;;325.47;225.67;;;6.80;99.90;;;;;;5074954;28;20440;-82
2020/12/11 10:49:56;;;;;;;285.80;179.17;;;6.80;99.90;;;;;;5074706;28;20521;-81
2020/12/11 10:52:22;;;;;;;157.97;101.57;;;6.80;99.90;;;;;;5075018;28;20768;-80
2020/12/11 10:54:49;;;;;;;100.87;61.60;;;6.80;99.90;;;;;;5093065;28;20365;-82
2020/12/11 10:57:15;;;;;;;99.28;63.25;;;6.80;99.90;;;;;;5093019;28;20720;-80
2020/12/11 10:59:41;;;;;;;101.10;67.90;;;6.70;99.90;;;;;;5092738;28;20494;-81
2020/12/11 11:02:07;;;;;;;100.40;63.05;;;6.80;99.90;;;;;;5074206;28;20801;-82
2020/12/11 11:04:33;;;;;;;97.57;58.42;;;6.80;99.90;;;;;;5075369;28;20846;-81
2020/12/11 11:07:03;;;;;;;87.83;56.40;;;6.80;99.90;;;;;;5093506;28;20364;-82
2020/12/11 11:09:35;;;;;;;197.97;99.93;;;6.80;99.90;;;;;;5074904;28;20874;-80
2020/12/11 11:22:37;;;;;;;343.42;190.60;;;7.00;99.90;;;;;;5093142;28;20371;-81
2020/12/11 11:28:20;;;;;;;125.50;76.93;;;6.90;99.90;;;;;;5092352;28;20367;-77
2020/12/11 11:30:39;;;;;;;382.27;245.35;;;6.90;99.90;;;;;;5088185;28;20400;-76
2020/12/11 11:33:05;;;;;;;117.90;72.20;;;6.80;99.90;;;;;;5092199;28;20885;-81
2020/12/11 11:35:30;;;;;;;284.43;183.43;;;6.80;99.90;;;;;;5092424;28;20368;-81
2020/12/11 11:37:57;;;;;;;358.47;220.20;;;6.80;99.90;;;;;;5091740;28;20743;-81
2020/12/11 11:40:24;;;;;;;251.25;149.85;;;6.80;99.90;;;;;;5074005;28;20403;-81
2020/12/11 11:42:51;;;;;;;131.65;78.00;;;6.80;99.90;;;;;;5092401;28;20371;-81
2020/12/11 11:45:27;;;;;;;196.43;123.27;;;6.70;99.90;;;;;;5092644;28;20850;-81
2020/12/11 11:47:55;;;;;;;125.72;80.82;;;6.70;99.90;;;;;;5091913;28;20373;-81
2020/12/11 11:50:26;;;;;;;118.18;78.35;;;6.70;99.90;;;;;;5073360;28;20380;-81
2020/12/11 11:53:10;;;;;;;124.40;82.40;;;6.70;99.90;;;;;;5074296;28;20723;-81
2020/12/11 11:55:36;;;;;;;116.88;77.47;;;6.70;99.90;;;;;;5091825;28;20368;-81
2020/12/11 11:58:02;;;;;;;123.43;75.93;;;6.80;99.90;;;;;;5074248;28;20379;-81
2020/12/11 12:00:28;;;;;;;116.47;68.63;;;6.80;99.90;;;;;;5073681;28;20716;-81
2020/12/11 12:02:53;;;;;;;116.10;65.60;;;6.80;99.90;;;;;;5074015;28;20372;-80
2020/12/11 12:05:19;;;;;;;102.47;62.25;;;6.90;99.90;;;;;;5092423;28;20433;-82
2020/12/11 12:07:45;;;;;;;108.03;63.67;;;6.80;99.90;;;;;;5092149;28;20360;-82
2020/12/11 12:10:11;;;;;;;125.03;68.93;;;6.80;99.90;;;;;;5073968;28;20783;-82
2020/12/11 12:12:38;;;;;;;111.90;61.67;;;6.90;99.90;;;;;;5074102;28;20768;-82
2020/12/11 12:15:11;;;;;;;113.15;64.85;;;6.90;99.90;;;;;;5092355;28;20858;-82
2020/12/11 12:17:45;;;;;;;113.95;66.15;;;6.80;99.90;;;;;;5092225;28;20388;-83
2020/12/11 12:20:19;;;;;;;122.07;68.70;;;6.80;99.90;;;;;;5074309;28;20382;-80
2020/12/11 12:28:28;;;;;;;135.82;77.20;;;6.80;99.90;;;;;;5076657;28;20460;-82
2020/12/11 12:30:54;;;;;;;119.20;68.72;;;6.90;99.90;;;;;;5071754;28;20376;-84
2020/12/11 12:43:58;;;;;;;548.20;377.85;;;7.10;99.90;;;;;;5092506;28;20355;-80
2020/12/11 12:46:24;;;;;;;189.30;103.18;;;7.00;99.90;;;;;;5073977;28;20370;-81
2020/12/11 12:48:50;;;;;;;183.47;103.43;;;7.00;99.90;;;;;;5073840;28;20854;-80
2020/12/11 12:51:16;;;;;;;378.63;238.13;;;7.00;99.90;;;;;;5092459;28;20392;-79
2020/12/11 12:53:42;;;;;;;161.68;91.20;;;6.90;99.90;;;;;;5091952;28;20368;-80
2020/12/11 12:58:59;;;;;;;234.80;138.25;;;7.10;99.90;;;;;;5092274;28;20434;-79
2020/12/11 13:01:37;;;;;;;196.52;114.05;;;7.10;99.90;;;;;;5076275;28;20394;-80
2020/12/11 13:04:20;;;;;;;243.32;142.45;;;7.00;99.90;;;;;;5095971;28;20372;-80
2020/12/11 13:06:47;;;;;;;229.85;128.10;;;7.10;99.90;;;;;;5075341;28;20822;-79
2020/12/11 13:09:16;;;;;;;144.17;82.03;;;7.10;99.90;;;;;;5089179;28;20454;-79
2020/12/11 13:11:41;;;;;;;149.57;85.53;;;7.00;99.90;;;;;;5097111;28;20430;-79
2020/12/11 13:14:07;;;;;;;163.93;94.32;;;7.00;99.90;;;;;;5094894;28;20396;-79
2020/12/11 13:16:34;;;;;;;212.65;127.18;;;7.10;99.90;;;;;;5094720;28;20392;-79
2020/12/11 13:18:59;;;;;;;188.35;108.47;;;6.90;99.90;;;;;;5094989;28;20369;-79
2020/12/11 13:21:32;;;;;;;142.07;79.88;;;7.00;99.90;;;;;;5094903;28;20366;-79
2020/12/11 13:26:49;;;;;;;141.48;79.78;;;6.90;99.90;;;;;;5093915;28;20457;-78